Time;durP1;ratioP1;P1;durP2;ratioP2;P2;SDS_P1;SDS_P2;PMS_P1;PMS_P2;Temp;Humidity;BMP_temperature;BMP_pressure;BME280_temperature;BME280_humidity;BME280_pressure;Samples;Min_cycle;Max_cycle;Signal;HPM_P1;HPM_P2
2022/12/23 00:00:39;;;;;;;;;;;;;;;6.70;100.00;97748.03;4321280;33;19984;-73
2022/12/23 00:03:22;;;;;;;;;;;;;;;6.58;100.00;97744.75;4323968;33;20274;-73
2022/12/23 00:05:48;;;;;;;;;;;;;;;6.41;100.00;97743.00;4324268;33;19983;-73
2022/12/23 00:08:15;;;;;;;;;;;;;;;6.74;100.00;97746.47;4322950;33;19962;-74
2022/12/23 00:10:41;;;;;;;;;;;;;;;6.94;100.00;97751.19;4321927;33;19945;-73
2022/12/23 00:16:02;;;;;;;;;;;;;;;7.15;100.00;97754.78;4323060;33;19972;-73
2022/12/23 00:18:28;;;;;;;;;;;;;;;7.03;100.00;97751.50;4322227;33;20010;-73
2022/12/23 00:20:58;;;;;;;;;;;;;;;7.00;100.00;97754.69;4325945;33;19977;-73
2022/12/23 00:23:24;;;;;;;;;;;;;;;6.93;100.00;97754.13;4336221;33;19963;-73
2022/12/23 00:25:50;;;;;;;;;;;;;;;7.13;100.00;97743.53;4324275;33;20000;-74
2022/12/23 00:28:19;;;;;;;;;;;;;;;6.73;100.00;97760.91;4325748;32;19944;-73
2022/12/23 00:30:49;;;;;;;;;;;;;;;6.71;100.00;97763.03;4370541;32;20341;-74
2022/12/23 00:33:23;;;;;;;;;;;;;;;6.96;100.00;97761.63;4371981;32;19952;-73
2022/12/23 00:35:49;;;;;;;;;;;;;;;6.84;100.00;97769.81;4386927;32;19951;-74
2022/12/23 00:38:16;;;;;;;;;;;;;;;6.88;100.00;97766.38;4380738;32;20006;-73
2022/12/23 00:43:27;;;;;;;;;;;;;;;7.17;100.00;97763.38;4372855;32;19944;-73
2022/12/23 00:45:53;;;;;;;;;;;;;;;6.91;100.00;97763.19;4375523;32;19946;-72
2022/12/23 00:51:05;;;;;;;;;;;;;;;7.30;100.00;97766.66;4369984;32;19961;-73
2022/12/23 00:53:31;;;;;;;;;;;;;;;6.99;100.00;97763.78;4379253;32;19946;-73
2022/12/23 00:55:57;;;;;;;;;;;;;;;7.05;100.00;97768.09;4371601;32;19943;-73
2022/12/23 00:58:24;;;;;;;;;;;;;;;7.33;100.00;97774.19;4369528;32;20222;-73
2022/12/23 03:01:05;;;;;;;;;;;;;;;7.54;100.00;97794.62;4795521;27;19961;-72
2022/12/23 03:03:33;;;;;;;;;;;;;;;7.64;100.00;97800.06;4293405;33;19949;-73
2022/12/23 03:06:01;;;;;;;;;;;;;;;7.07;100.00;97798.91;4295011;33;19946;-74
2022/12/23 03:08:30;;;;;;;;;;;;;;;7.42;100.00;97796.72;4296017;33;20360;-73
2022/12/23 03:11:02;;;;;;;;;;;;;;;7.52;100.00;97794.09;4295886;33;19945;-73
2022/12/23 03:13:40;;;;;;;;;;;;;;;7.27;100.00;97802.78;4294471;33;20004;-72
2022/12/23 03:16:12;;;;;;;;;;;;;;;6.99;100.00;97801.22;4295029;33;20010;-73
2022/12/23 03:18:59;;;;;;;;;;;;;;;7.01;100.00;97799.13;4295954;33;19948;-73
2022/12/23 03:21:33;;;;;;;;;;;;;;;6.90;100.00;97804.38;4292736;33;20282;-73
2022/12/23 03:24:06;;;;;;;;;;;;;;;7.30;100.00;97812.19;4291241;33;19945;-73
2022/12/23 03:26:37;;;;;;;;;;;;;;;7.25;100.00;97805.72;4283904;33;19955;-73
2022/12/23 03:29:11;;;;;;;;;;;;;;;6.76;100.00;97808.56;4293590;33;20013;-72
2022/12/23 03:31:38;;;;;;;;;;;;;;;6.79;100.00;97813.41;4295216;33;19945;-72
2022/12/23 03:34:07;;;;;;;;;;;;;;;6.87;100.00;97812.94;4296008;33;19949;-72
2022/12/23 03:36:35;;;;;;;;;;;;;;;6.68;100.00;97817.03;4297494;33;19949;-73
2022/12/23 03:39:04;;;;;;;;;;;;;;;6.86;100.00;97818.53;4293674;33;19940;-72
2022/12/23 03:41:34;;;;;;;;;;;;;;;6.82;100.00;97815.56;4281222;33;20291;-72
2022/12/23 03:44:07;;;;;;;;;;;;;;;7.13;100.00;97815.78;4281360;33;19949;-72
2022/12/23 03:46:37;;;;;;;;;;;;;;;6.73;100.00;97817.09;4280442;33;19951;-72
2022/12/23 03:49:10;;;;;;;;;;;;;;;6.68;100.00;97811.69;4279564;33;20405;-72
2022/12/23 03:51:39;;;;;;;;;;;;;;;6.93;100.00;97808.44;4280938;33;20306;-72
2022/12/23 03:54:09;;;;;;;;;;;;;;;7.06;100.00;97817.91;4280898;33;20356;-73
2022/12/23 03:56:39;;;;;;;;;;;;;;;7.08;100.00;97810.41;4281097;33;20232;-73
2022/12/23 03:59:26;;;;;;;;;;;;;;;7.18;100.00;97818.53;4280191;33;19949;-72
2022/12/23 04:01:52;;;;;;;;;;;;;;;6.87;100.00;97820.16;4280942;33;19957;-73
2022/12/23 04:04:28;;;;;;;;;;;;;;;6.90;100.00;97820.44;4280868;33;19959;-72
2022/12/23 04:06:57;;;;;;;;;;;;;;;7.10;100.00;97810.97;4281026;33;20670;-73
2022/12/23 04:09:26;;;;;;;;;;;;;;;6.75;100.00;97806.13;4280646;33;20039;-73
2022/12/23 04:11:53;;;;;;;;;;;;;;;7.02;100.00;97800.72;4280753;33;20314;-73
2022/12/23 04:14:20;;;;;;;;;;;;;;;6.78;100.00;97801.09;4279510;33;20355;-72
2022/12/23 04:16:47;;;;;;;;;;;;;;;6.93;100.00;97813.00;4287707;33;19941;-73
2022/12/23 04:19:14;;;;;;;;;;;;;;;6.85;100.00;97806.22;4294846;33;19960;-73
2022/12/23 04:21:40;;;;;;;;;;;;;;;6.83;100.00;97814.50;4295206;33;19980;-73
2022/12/23 04:24:06;;;;;;;;;;;;;;;6.98;100.00;97815.69;4294980;33;20057;-73
2022/12/23 04:26:32;;;;;;;;;;;;;;;7.05;100.00;97810.91;4294613;33;19959;-73
2022/12/23 04:28:58;;;;;;;;;;;;;;;7.15;100.00;97816.38;4292849;33;20010;-73
2022/12/23 04:31:25;;;;;;;;;;;;;;;7.06;100.00;97817.91;4295502;33;19975;-73
2022/12/23 04:33:51;;;;;;;;;;;;;;;6.91;100.00;97822.06;4297079;33;19941;-73
2022/12/23 04:36:17;;;;;;;;;;;;;;;7.11;100.00;97815.25;4296944;33;19984;-73
2022/12/23 04:38:43;;;;;;;;;;;;;;;7.01;100.00;97809.84;4297124;33;20306;-73
2022/12/23 04:41:09;;;;;;;;;;;;;;;7.04;100.00;97806.66;4294506;33;19995;-73
2022/12/23 04:43:36;;;;;;;;;;;;;;;6.99;100.00;97806.59;4298493;33;20567;-73
2022/12/23 04:46:02;;;;;;;;;;;;;;;6.83;100.00;97817.19;4299468;33;19944;-72
2022/12/23 04:48:28;;;;;;;;;;;;;;;6.67;100.00;97804.72;4299409;33;19949;-73
2022/12/23 04:50:54;;;;;;;;;;;;;;;6.81;100.00;97810.47;4299832;33;20304;-73
2022/12/23 04:53:21;;;;;;;;;;;;;;;6.60;100.00;97823.66;4295630;33;19945;-72
2022/12/23 04:55:50;;;;;;;;;;;;;;;6.66;100.00;97811.16;4296757;33;19944;-73
2022/12/23 04:58:16;;;;;;;;;;;;;;;6.43;100.00;97804.25;4269224;33;19957;-73
2022/12/23 05:00:42;;;;;;;;;;;;;;;6.25;100.00;97808.06;4268151;33;20263;-73
2022/12/23 05:03:09;;;;;;;;;;;;;;;6.36;100.00;97804.44;4269173;33;19945;-73
2022/12/23 05:05:35;;;;;;;;;;;;;;;6.41;100.00;97807.16;4268013;33;20009;-72
2022/12/23 05:08:03;;;;;;;;;;;;;;;6.76;100.00;97808.56;4267608;33;20101;-73
2022/12/23 05:10:29;;;;;;;;;;;;;;;6.61;100.00;97811.13;4267424;33;19956;-73
2022/12/23 05:12:55;;;;;;;;;;;;;;;6.54;100.00;97814.78;4268916;33;19937;-73
2022/12/23 05:15:21;;;;;;;;;;;;;;;6.48;100.00;97823.81;4266377;33;19960;-74
2022/12/23 05:17:47;;;;;;;;;;;;;;;6.42;100.00;97818.69;4265126;33;20019;-73
2022/12/23 05:20:20;;;;;;;;;;;;;;;7.00;100.00;97813.56;4268654;33;20284;-73
2022/12/23 05:22:47;;;;;;;;;;;;;;;6.28;100.00;97824.41;4267886;33;19942;-73
2022/12/23 05:25:13;;;;;;;;;;;;;;;6.23;100.00;97820.91;4280173;33;19968;-74
2022/12/23 05:27:39;;;;;;;;;;;;;;;6.51;100.00;97823.31;4280780;33;19963;-73
2022/12/23 05:30:06;;;;;;;;;;;;;;;6.56;100.00;97819.91;4289073;33;20401;-73
2022/12/23 05:32:32;;;;;;;;;;;;;;;6.53;100.00;97818.53;4293927;33;19940;-73
2022/12/23 05:34:58;;;;;;;;;;;;;;;6.69;100.00;97821.34;4297337;33;19972;-74
2022/12/23 05:37:24;;;;;;;;;;;;;;;6.57;100.00;97815.34;4297263;33;20009;-73
2022/12/23 05:39:50;;;;;;;;;;;;;;;6.43;100.00;97818.44;4295405;33;20417;-72
2022/12/23 05:42:23;;;;;;;;;;;;;;;6.12;100.00;97759.28;4297430;33;19953;-73
2022/12/23 05:44:49;;;;;;;;;;;;;;;6.41;100.00;97814.37;4296210;33;19976;-73
2022/12/23 05:47:16;;;;;;;;;;;;;;;6.46;100.00;97815.25;4297799;33;19963;-73
2022/12/23 05:49:42;;;;;;;;;;;;;;;5.94;100.00;97818.41;4297101;33;19941;-73
2022/12/23 05:52:08;;;;;;;;;;;;;;;6.43;100.00;97814.94;4295973;33;19951;-74
2022/12/23 05:54:34;;;;;;;;;;;;;;;6.54;100.00;97814.78;4281388;33;19961;-73
2022/12/23 05:57:00;;;;;;;;;;;;;;;6.60;100.00;97817.50;4281323;33;20099;-73
2022/12/23 05:59:27;;;;;;;;;;;;;;;6.43;100.00;97821.09;4281956;33;19941;-73
2022/12/23 06:01:53;;;;;;;;;;;;;;;6.32;100.00;97840.78;4256317;33;19957;-72
2022/12/23 06:04:19;;;;;;;;;;;;;;;6.42;100.00;97840.88;4266881;33;19996;-73
2022/12/23 06:06:52;;;;;;;;;;;;;;;6.18;100.00;97835.00;4267048;33;20040;-73
2022/12/23 06:09:18;;;;;;;;;;;;;;;6.53;100.00;97829.22;4264787;33;20008;-73
2022/12/23 06:11:51;;;;;;;;;;;;;;;6.62;100.00;97839.47;4293631;33;20101;-72
2022/12/23 06:14:17;;;;;;;;;;;;;;;6.25;100.00;97834.81;4295577;33;20817;-72
2022/12/23 06:16:44;;;;;;;;;;;;;;;6.57;100.00;97837.53;4295910;33;19941;-73
2022/12/23 06:19:10;;;;;;;;;;;;;;;6.41;100.00;97833.09;4295835;33;20124;-72
2022/12/23 06:21:36;;;;;;;;;;;;;;;6.07;100.00;97834.06;4292322;33;19996;-73
2022/12/23 06:24:02;;;;;;;;;;;;;;;6.74;100.00;97829.41;4279777;33;19945;-72
2022/12/23 06:26:29;;;;;;;;;;;;;;;6.85;100.00;97833.00;4281706;33;19951;-73
2022/12/23 06:28:55;;;;;;;;;;;;;;;6.73;100.00;97835.81;4282049;33;19957;-73
2022/12/23 06:31:21;;;;;;;;;;;;;;;6.27;100.00;97836.19;4281284;33;19949;-72
2022/12/23 06:33:47;;;;;;;;;;;;;;;6.26;100.00;97831.09;4282300;33;19955;-73
2022/12/23 06:36:13;;;;;;;;;;;;;;;6.38;100.00;97837.06;4281317;33;20001;-72
2022/12/23 06:38:39;;;;;;;;;;;;;;;6.31;100.00;97829.25;4281091;33;19959;-72
2022/12/23 06:41:06;;;;;;;;;;;;;;;6.27;100.00;97832.69;4267742;33;20332;-73
2022/12/23 06:43:32;;;;;;;;;;;;;;;6.38;100.00;97839.75;4267566;33;19938;-73
2022/12/23 06:45:58;;;;;;;;;;;;;;;6.28;100.00;97845.00;4267091;33;19947;-73
2022/12/23 06:48:25;;;;;;;;;;;;;;;6.15;100.00;97841.66;4261512;33;19995;-73
2022/12/23 06:50:51;;;;;;;;;;;;;;;5.98;100.00;97840.91;4253264;33;20756;-73
2022/12/23 06:53:24;;;;;;;;;;;;;;;6.29;100.00;97835.94;4253312;33;20057;-73
2022/12/23 06:55:58;;;;;;;;;;;;;;;6.38;100.00;97834.41;4263389;33;19985;-73
2022/12/23 06:58:23;;;;;;;;;;;;;;;6.41;100.00;97831.22;4264108;33;19955;-73
2022/12/23 07:00:50;;;;;;;;;;;;;;;6.22;100.00;97824.62;4252422;33;20928;-73
2022/12/23 07:03:16;;;;;;;;;;;;;;;6.36;100.00;97826.63;4252167;33;20443;-73
2022/12/23 07:05:45;;;;;;;;;;;;;;;6.41;100.00;97820.53;4252627;33;20345;-73
2022/12/23 07:08:14;;;;;;;;;;;;;;;6.30;100.00;97826.84;4260488;33;19941;-73
2022/12/23 07:10:49;;;;;;;;;;;;;;;6.48;100.00;97829.19;4253645;33;20370;-72
2022/12/23 07:13:27;;;;;;;;;;;;;;;6.23;100.00;97827.03;4282718;33;19941;-72
2022/12/23 07:15:58;;;;;;;;;;;;;;;6.49;100.00;97836.16;4281431;33;20263;-72
2022/12/23 07:18:24;;;;;;;;;;;;;;;6.50;100.00;97828.94;4287701;33;19945;-74
2022/12/23 07:20:54;;;;;;;;;;;;;;;6.23;100.00;97820.91;4299012;33;19985;-74
2022/12/23 07:23:26;;;;;;;;;;;;;;;6.30;100.00;97826.84;4299723;33;20362;-73
2022/12/23 07:26:01;;;;;;;;;;;;;;;6.67;100.00;97820.78;4299160;33;20275;-73
2022/12/23 07:28:29;;;;;;;;;;;;;;;6.74;100.00;97816.03;4296143;33;19940;-75
2022/12/23 07:30:57;;;;;;;;;;;;;;;6.61;100.00;97822.59;4298543;33;19957;-74
2022/12/23 07:33:25;;;;;;;;;;;;;;;6.68;100.00;97822.41;4298755;33;19955;-73
2022/12/23 07:35:58;;;;;;;;;;;;;;;6.61;100.00;97817.25;4298196;33;19956;-75
2022/12/23 07:38:26;;;;;;;;;;;;;;;6.31;100.00;97817.75;4296586;33;20052;-72
2022/12/23 07:40:57;;;;;;;;;;;;;;;6.79;100.00;97813.41;4299056;33;19963;-75
2022/12/23 07:43:24;;;;;;;;;;;;;;;6.61;100.00;97816.47;4297311;33;19936;-76
2022/12/23 07:45:51;;;;;;;;;;;;;;;6.45;100.00;97813.63;4297188;33;19992;-76
2022/12/23 07:48:17;;;;;;;;;;;;;;;6.68;100.00;97814.37;4295285;33;19965;-73
2022/12/23 07:50:43;;;;;;;;;;;;;;;6.36;100.00;97807.91;4294602;33;19979;-74
2022/12/23 07:53:09;;;;;;;;;;;;;;;6.72;100.00;97812.81;4296894;33;19964;-74
2022/12/23 07:55:35;;;;;;;;;;;;;;;6.40;100.00;97818.09;4297480;33;20027;-74
2022/12/23 07:58:01;;;;;;;;;;;;;;;6.74;100.00;97813.34;4297363;33;19976;-73
2022/12/23 08:00:28;;;;;;;;;;;;;;;6.77;100.00;97812.84;4271224;33;20007;-73
2022/12/23 08:03:01;;;;;;;;;;;;;;;6.53;100.00;97775.72;4270187;33;19999;-73
2022/12/23 08:05:27;;;;;;;;;;;;;;;6.71;100.00;97816.53;4269152;33;19949;-73
2022/12/23 08:07:53;;;;;;;;;;;;;;;7.10;100.00;97813.66;4272328;33;19949;-74
2022/12/23 08:10:19;;;;;;;;;;;;;;;7.02;100.00;97811.44;4279015;33;19942;-75
2022/12/23 08:12:45;;;;;;;;;;;;;;;6.73;100.00;97803.72;4279952;33;20299;-75
2022/12/23 08:15:12;;;;;;;;;;;;;;;6.72;100.00;97802.12;4278728;33;19945;-74
2022/12/23 08:17:38;;;;;;;;;;;;;;;6.64;100.00;97795.34;4280315;33;20320;-75
2022/12/23 08:20:06;;;;;;;;;;;;;;;6.49;100.00;97795.22;4278616;33;20333;-74
2022/12/23 08:22:32;;;;;;;;;;;;;;;6.41;100.00;97790.31;4277458;33;20409;-74
2022/12/23 08:24:59;;;;;;;;;;;;;;;6.42;100.00;97784.72;4276894;33;20019;-75
2022/12/23 08:27:25;;;;;;;;;;;;;;;6.63;100.00;97787.59;4247992;33;19997;-75
2022/12/23 08:29:51;;;;;;;;;;;;;;;6.43;100.00;97783.69;4246314;33;19959;-76
2022/12/23 08:32:26;;;;;;;;;;;;;;;6.66;100.00;97787.09;4248057;33;19950;-75
2022/12/23 08:34:53;;;;;;;;;;;;;;;6.34;100.00;97771.81;4252165;33;20083;-75
2022/12/23 08:37:20;;;;;;;;;;;;;;;6.43;100.00;97772.97;4250653;33;19979;-74
2022/12/23 08:39:46;;;;;;;;;;;;;;;6.48;100.00;97770.34;4251633;33;19938;-74
2022/12/23 08:42:12;;;;;;;;;;;;;;;6.13;100.00;97774.28;4251347;33;19990;-74
2022/12/23 08:44:39;;;;;;;;;;;;;;;6.10;100.00;97774.78;4234233;33;20350;-75
2022/12/23 08:47:05;;;;;;;;;;;;;;;5.98;100.00;97766.09;4221827;33;19953;-74
2022/12/23 08:49:31;;;;;;;;;;;;;;;6.12;100.00;97767.31;4218454;34;19980;-75
2022/12/23 08:51:58;;;;;;;;;;;;;;;5.95;100.00;97761.22;4232785;33;19942;-74
2022/12/23 08:54:28;;;;;;;;;;;;;;;5.99;100.00;97735.66;4235207;33;19980;-74
2022/12/23 08:56:54;;;;;;;;;;;;;;;6.15;100.00;97761.47;4237135;33;19958;-75
2022/12/23 08:59:21;;;;;;;;;;;;;;;6.06;100.00;97746.13;4260917;33;19998;-76
2022/12/23 09:01:47;;;;;;;;;;;;;;;6.14;100.00;97746.50;4263741;33;19994;-76
2022/12/23 09:04:14;;;;;;;;;;;;;;;6.42;100.00;97744.63;4262563;33;19941;-75
2022/12/23 09:06:41;;;;;;;;;;;;;;;6.60;100.00;97756.00;4273300;33;20014;-73
2022/12/23 09:09:09;;;;;;;;;;;;;;;6.43;100.00;97743.56;4280217;33;20048;-76
2022/12/23 09:11:36;;;;;;;;;;;;;;;6.42;100.00;97744.63;4279147;33;19979;-77
2022/12/23 09:14:03;;;;;;;;;;;;;;;6.62;100.00;97737.81;4279226;33;19946;-75
2022/12/23 09:16:29;;;;;;;;;;;;;;;6.64;100.00;97731.16;4292004;33;20348;-75
2022/12/23 09:18:55;;;;;;;;;;;;;;;6.42;100.00;97728.56;4296758;33;20411;-74
2022/12/23 09:21:22;;;;;;;;;;;;;;;6.52;100.00;97733.19;4273537;33;19949;-74
2022/12/23 09:23:55;;;;;;;;;;;;;;;6.32;100.00;97733.84;4270320;33;20036;-75
2022/12/23 09:26:25;;;;;;;;;;;;;;;6.70;100.00;97735.50;4264243;33;19991;-75
2022/12/23 09:28:52;;;;;;;;;;;;;;;6.59;100.00;97719.59;4237259;33;19958;-75
2022/12/23 09:31:18;;;;;;;;;;;;;;;6.59;100.00;97716.94;4242809;33;19953;-74
2022/12/23 09:33:46;;;;;;;;;;;;;;;6.76;100.00;97712.25;4244891;33;19983;-74
2022/12/23 09:36:12;;;;;;;;;;;;;;;6.48;100.00;97708.84;4242430;33;20019;-74
2022/12/23 09:38:39;;;;;;;;;;;;;;;6.48;100.00;97706.16;4247260;33;19958;-74
2022/12/23 09:41:15;;;;;;;;;;;;;;;6.50;100.00;97709.38;4254352;33;19954;-75
2022/12/23 09:43:47;;;;;;;;;;;;;;;6.91;100.00;97706.22;4254518;33;19950;-76
2022/12/23 09:46:13;;;;;;;;;;;;;;;6.71;100.00;97699.63;4255661;33;19938;-75
2022/12/23 09:48:44;;;;;;;;;;;;;;;6.99;100.00;97704.88;4251218;33;19954;-74
2022/12/23 09:51:21;;;;;;;;;;;;;;;6.90;100.00;97700.03;4266438;33;19945;-74
2022/12/23 09:53:59;;;;;;;;;;;;;;;7.01;100.00;97697.44;4257258;33;20339;-75
2022/12/23 09:56:46;;;;;;;;;;;;;;;6.76;100.00;97695.41;4249393;33;19970;-74
2022/12/23 09:59:20;;;;;;;;;;;;;;;6.68;100.00;97704.69;4257035;33;19967;-73
2022/12/23 10:01:59;;;;;;;;;;;;;;;6.69;100.00;97691.06;4278273;33;19948;-74
2022/12/23 10:04:39;;;;;;;;;;;;;;;6.75;100.00;97694.59;4279611;33;19978;-74
2022/12/23 10:07:05;;;;;;;;;;;;;;;6.93;100.00;97711.31;4279364;33;20303;-74
2022/12/23 10:09:33;;;;;;;;;;;;;;;7.05;100.00;97693.97;4279900;33;20048;-74
2022/12/23 10:12:01;;;;;;;;;;;;;;;6.98;100.00;97697.94;4279906;33;19964;-74
2022/12/23 10:14:30;;;;;;;;;;;;;;;6.86;100.00;97696.28;4292746;33;19938;-74
2022/12/23 10:16:58;;;;;;;;;;;;;;;7.10;100.00;97695.88;4294851;33;19947;-75
2022/12/23 10:19:33;;;;;;;;;;;;;;;6.84;100.00;97692.25;4288513;33;19991;-74
2022/12/23 10:22:05;;;;;;;;;;;;;;;7.08;100.00;97692.63;4294033;33;19973;-74
2022/12/23 10:24:37;;;;;;;;;;;;;;;7.19;100.00;97688.94;4292849;33;20291;-74
2022/12/23 10:27:19;;;;;;;;;;;;;;;7.30;100.00;97686.34;4290970;33;19967;-74
2022/12/23 10:29:45;;;;;;;;;;;;;;;7.03;100.00;97684.59;4262244;33;19949;-74
2022/12/23 10:32:21;;;;;;;;;;;;;;;7.05;100.00;97688.62;4262611;33;19992;-74
2022/12/23 10:35:06;;;;;;;;;;;;;;;7.47;100.00;97684.25;4274194;33;19989;-73
2022/12/23 10:37:32;;;;;;;;;;;;;;;7.18;100.00;97687.34;4274954;33;19957;-73
2022/12/23 10:39:59;;;;;;;;;;;;;;;7.32;100.00;97686.88;4250764;33;20007;-74
2022/12/23 10:42:54;;;;;;;;;;;;;;;7.71;100.00;97673.88;4250690;33;20318;-74
2022/12/23 10:45:23;;;;;;;;;;;;;;;7.34;100.00;97668.66;4181633;34;19940;-75
2022/12/23 10:47:49;;;;;;;;;;;;;;;7.43;100.00;97667.88;4229802;33;20375;-75
2022/12/23 10:50:21;;;;;;;;;;;;;;;7.12;100.00;97687.59;4238761;33;20341;-76
2022/12/23 10:52:48;;;;;;;;;;;;;;;7.45;100.00;97671.13;4231365;33;20468;-75
2022/12/23 10:55:20;;;;;;;;;;;;;;;7.37;100.00;97674.31;4230043;33;20084;-76
2022/12/23 10:57:46;;;;;;;;;;;;;;;7.16;100.00;97677.97;4229641;33;19954;-73
2022/12/23 11:00:16;;;;;;;;;;;;;;;7.20;100.00;97666.47;4223708;33;20361;-75
2022/12/23 11:02:42;;;;;;;;;;;;;;;7.34;100.00;97668.66;4216143;34;20000;-75
2022/12/23 11:05:18;;;;;;;;;;;;;;;7.14;100.00;97674.75;4219387;34;19984;-73
2022/12/23 11:07:45;;;;;;;;;;;;;;;7.12;100.00;97672.34;4219278;33;20338;-74
2022/12/23 11:10:31;;;;;;;;;;;;;;;7.09;100.00;97670.97;4217042;34;19962;-71
2022/12/23 11:12:59;;;;;;;;;;;;;;;7.33;100.00;97667.06;4216400;33;19942;-74
2022/12/23 11:15:28;;;;;;;;;;;;;;;7.50;100.00;97659.63;4231289;33;19942;-73
2022/12/23 11:18:01;;;;;;;;;;;;;;;7.55;100.00;97658.84;4257331;33;19952;-73
2022/12/23 11:20:28;;;;;;;;;;;;;;;7.12;100.00;97661.63;4257017;33;20024;-73
2022/12/23 11:22:57;;;;;;;;;;;;;;;7.34;100.00;97665.97;4256615;33;19966;-75
2022/12/23 11:25:34;;;;;;;;;;;;;;;7.46;100.00;97653.97;4258831;33;20387;-73
2022/12/23 11:28:12;;;;;;;;;;;;;;;7.16;100.00;97662.69;4260403;33;19946;-73
2022/12/23 11:30:52;;;;;;;;;;;;;;;7.18;100.00;97657.91;4263554;33;19949;-73
2022/12/23 11:33:24;;;;;;;;;;;;;;;7.17;100.00;97658.97;4270483;33;19958;-73
2022/12/23 11:36:07;;;;;;;;;;;;;;;7.51;100.00;97658.53;4280705;33;19955;-73
2022/12/23 11:38:34;;;;;;;;;;;;;;;7.23;100.00;97657.91;4269506;33;19945;-73
2022/12/23 11:41:02;;;;;;;;;;;;;;;7.51;100.00;97660.44;4272254;33;20492;-73
2022/12/23 11:43:29;;;;;;;;;;;;;;;7.34;100.00;97672.16;4269398;33;19945;-72
2022/12/23 11:46:14;;;;;;;;;;;;;;;7.39;100.00;97655.31;4275512;33;19953;-73
2022/12/23 11:48:40;;;;;;;;;;;;;;;7.60;100.00;97651.63;4293425;33;20259;-73
2022/12/23 11:51:07;;;;;;;;;;;;;;;7.62;100.00;97654.03;4293201;33;19982;-73
2022/12/23 11:53:35;;;;;;;;;;;;;;;7.23;100.00;97663.28;4289416;33;19949;-73
2022/12/23 11:56:07;;;;;;;;;;;;;;;7.34;100.00;97658.78;4289545;33;19960;-74
2022/12/23 11:58:39;;;;;;;;;;;;;;;7.46;100.00;97645.94;4286113;33;20060;-74
2022/12/23 12:01:13;;;;;;;;;;;;;;;7.01;100.00;97657.28;4429259;28;20210;-73
2022/12/23 12:03:45;;;;;;;;;;;;;;;7.31;100.00;97648.59;4300872;33;19981;-73
2022/12/23 12:06:13;;;;;;;;;;;;;;;7.27;100.00;97659.03;4309319;33;19964;-73
2022/12/23 12:08:40;;;;;;;;;;;;;;;7.16;100.00;97657.34;4306267;33;19945;-73
2022/12/23 12:11:15;;;;;;;;;;;;;;;7.47;100.00;97652.13;4294498;33;19944;-73
2022/12/23 12:13:44;;;;;;;;;;;;;;;7.15;100.00;97655.75;4291173;33;19961;-73
2022/12/23 12:16:10;;;;;;;;;;;;;;;6.90;100.00;97649.19;4291766;33;19961;-73
2022/12/23 12:18:38;;;;;;;;;;;;;;;7.34;100.00;97663.31;4289347;33;20330;-72
2022/12/23 12:21:09;;;;;;;;;;;;;;;7.16;100.00;97664.56;4293702;33;19945;-74
2022/12/23 12:23:35;;;;;;;;;;;;;;;7.36;100.00;97666.56;4293806;33;19941;-74
2022/12/23 12:26:03;;;;;;;;;;;;;;;7.36;100.00;97658.50;4294606;33;19948;-72
2022/12/23 12:28:38;;;;;;;;;;;;;;;7.13;100.00;97663.22;4294214;33;20094;-73
2022/12/23 12:31:13;;;;;;;;;;;;;;;7.05;100.00;97659.19;4289635;33;19948;-74
2022/12/23 12:33:47;;;;;;;;;;;;;;;7.20;100.00;97663.78;4293723;33;20014;-73
2022/12/23 12:36:16;;;;;;;;;;;;;;;7.61;100.00;97663.94;4307889;33;19948;-74
2022/12/23 12:38:44;;;;;;;;;;;;;;;7.52;100.00;97654.81;4308187;33;19958;-74
2022/12/23 12:41:21;;;;;;;;;;;;;;;7.77;100.00;97666.66;4305497;33;19940;-73
2022/12/23 12:43:55;;;;;;;;;;;;;;;7.46;100.00;97667.38;4282080;33;20003;-73
2022/12/23 12:46:27;;;;;;;;;;;;;;;7.12;100.00;97664.31;4276758;33;19957;-72
2022/12/23 12:48:58;;;;;;;;;;;;;;;6.90;100.00;97659.91;4274959;33;20143;-72
2022/12/23 12:51:32;;;;;;;;;;;;;;;6.84;100.00;97650.22;4276107;33;19952;-72
2022/12/23 12:54:12;;;;;;;;;;;;;;;7.11;100.00;97653.84;4282205;33;20038;-73
2022/12/23 12:56:47;;;;;;;;;;;;;;;7.09;100.00;97664.81;4277220;33;19956;-72
2022/12/23 12:59:18;;;;;;;;;;;;;;;7.42;100.00;97660.16;4279152;33;20001;-72
2022/12/23 13:01:48;;;;;;;;;;;;;;;7.05;100.00;97650.34;4274353;33;19986;-71
2022/12/23 13:04:14;;;;;;;;;;;;;;;7.25;100.00;97653.09;4275582;33;19945;-71
2022/12/23 13:06:51;;;;;;;;;;;;;;;7.14;100.00;97658.69;4280886;33;19941;-73
2022/12/23 13:09:27;;;;;;;;;;;;;;;6.96;100.00;97663.41;4279392;33;20008;-71
2022/12/23 13:11:57;;;;;;;;;;;;;;;7.30;100.00;97657.69;4279776;33;19979;-72
2022/12/23 13:14:32;;;;;;;;;;;;;;;7.49;100.00;97659.91;4267438;33;19964;-72
2022/12/23 13:17:05;;;;;;;;;;;;;;;7.61;100.00;97658.59;4264293;33;19958;-73
2022/12/23 13:19:31;;;;;;;;;;;;;;;7.33;100.00;97651.00;4263696;33;20034;-73
2022/12/23 13:22:08;;;;;;;;;;;;;;;7.55;100.00;97654.28;4283119;33;20006;-72
2022/12/23 13:24:50;;;;;;;;;;;;;;;7.43;100.00;97656.38;4300763;33;20066;-72
2022/12/23 13:27:19;;;;;;;;;;;;;;;7.12;100.00;97661.63;4301024;33;19948;-72
2022/12/23 13:29:48;;;;;;;;;;;;;;;7.15;100.00;97671.81;4299059;33;19981;-70
2022/12/23 13:32:26;;;;;;;;;;;;;;;6.99;100.00;97678.13;4302473;33;19965;-71
2022/12/23 13:35:07;;;;;;;;;;;;;;;7.06;100.00;97662.66;4309785;33;19940;-74
2022/12/23 13:37:52;;;;;;;;;;;;;;;7.40;100.00;97665.75;4306419;33;19945;-73
2022/12/23 13:40:33;;;;;;;;;;;;;;;7.38;100.00;97675.13;4303856;33;19948;-73
2022/12/23 13:43:03;;;;;;;;;;;;;;;7.47;100.00;97673.56;4292788;33;19952;-74
2022/12/23 13:45:35;;;;;;;;;;;;;;;7.61;100.00;97669.31;4293460;33;20323;-76
2022/12/23 13:48:19;;;;;;;;;;;;;;;7.53;100.00;97677.03;4294524;33;19945;-73
2022/12/23 13:51:06;;;;;;;;;;;;;;;7.67;100.00;97675.47;4292091;33;20351;-74
2022/12/23 13:54:07;;;;;;;;;;;;;;;7.44;100.00;97679.44;4269052;33;19945;-74
2022/12/23 13:56:53;;;;;;;;;;;;;;;7.65;100.00;97685.66;4247696;33;20087;-73
2022/12/23 13:59:19;;;;;;;;;;;;;;;7.30;100.00;97678.31;4260405;33;19946;-74
2022/12/23 14:01:52;;;;;;;;;;;;;;;7.40;100.00;97679.16;4257725;33;19953;-74
2022/12/23 14:04:41;;;;;;;;;;;;;;;7.83;100.00;97681.69;4260721;33;19960;-73
2022/12/23 14:07:20;;;;;;;;;;;;;;;7.56;100.00;97682.69;4262074;33;19953;-73
2022/12/23 14:09:53;;;;;;;;;;;;;;;7.58;100.00;97677.88;4261499;33;19984;-73
2022/12/23 14:12:19;;;;;;;;;;;;;;;7.50;100.00;97683.75;4259827;33;19941;-73
2022/12/23 14:14:54;;;;;;;;;;;;;;;7.94;100.00;97683.31;4271996;33;19979;-74
2022/12/23 14:17:26;;;;;;;;;;;;;;;7.79;100.00;97696.69;4276509;33;19945;-73
2022/12/23 14:19:55;;;;;;;;;;;;;;;7.73;100.00;97697.75;4279877;33;19953;-74
2022/12/23 14:22:27;;;;;;;;;;;;;;;7.60;100.00;97693.69;4281266;33;19961;-74
2022/12/23 14:25:08;;;;;;;;;;;;;;;7.81;100.00;97694.53;4279676;33;20558;-74
2022/12/23 14:28:04;;;;;;;;;;;;;;;7.64;100.00;97690.22;4291955;33;19989;-74
2022/12/23 14:30:34;;;;;;;;;;;;;;;7.72;100.00;97690.75;4247940;33;19953;-74
2022/12/23 14:33:02;;;;;;;;;;;;;;;7.70;100.00;97698.25;4250267;33;19942;-73
2022/12/23 14:35:31;;;;;;;;;;;;;;;7.84;100.00;97701.25;4251724;33;19966;-73
2022/12/23 14:38:03;;;;;;;;;;;;;;;7.65;100.00;97704.41;4251248;33;20009;-74
2022/12/23 14:40:36;;;;;;;;;;;;;;;7.70;100.00;97700.94;4251354;33;20272;-73
2022/12/23 14:43:17;;;;;;;;;;;;;;;7.56;100.00;97704.13;4252476;33;20080;-74
2022/12/23 14:45:43;;;;;;;;;;;;;;;7.64;100.00;97700.94;4236160;33;20087;-74
2022/12/23 14:48:28;;;;;;;;;;;;;;;7.72;100.00;97702.31;4238772;33;19950;-75
2022/12/23 14:50:56;;;;;;;;;;;;;;;7.66;100.00;97702.53;4235308;33;19968;-74
2022/12/23 14:53:24;;;;;;;;;;;;;;;7.87;100.00;97712.25;4232533;33;19958;-73
2022/12/23 14:56:09;;;;;;;;;;;;;;;7.67;100.00;97694.22;4223837;34;20009;-74
2022/12/23 14:58:45;;;;;;;;;;;;;;;7.40;100.00;97694.41;4224592;34;19955;-72
2022/12/23 15:01:30;;;;;;;;;;;;;;;7.80;100.00;97704.47;4224241;34;20001;-73
2022/12/23 15:03:57;;;;;;;;;;;;;;;7.67;100.00;97704.16;4212390;34;19957;-73
2022/12/23 15:06:38;;;;;;;;;;;;;;;7.96;100.00;97713.34;4233615;33;19953;-73
2022/12/23 15:09:06;;;;;;;;;;;;;;;8.14;100.00;97704.00;4238544;33;19942;-74
2022/12/23 15:11:33;;;;;;;;;;;;;;;7.96;100.00;97717.88;4237877;33;19947;-73